Lavon, Texas
Current Conditions -  °F | °C
As of 9:55 AM on Thursday 30 Oct 2014 (Local Time) from KF46 Reporting Station
Clear Clear  
Wind Chill: 63°   Ceiling: Unl
Heat Index: 63°   Visibility: 10mi
Dew Point: 48°   Wind: 9mph
Humidity: 57%   Direction: 180°S
Pressure: 30.17"   Gusts: 17mph
Location:  33.03°N, 96.43°W
Report Text: KF46 301455Z AUTO 18008G15KT 10SM CLR 17/09 A3017 RMK AO2 T01730088
Loading
Personal Weather Stations






























Interactive Weather Map
Tropical Storm Tracking
New forecast layout! Learn more

10-Day Weather Forecast

Advertisements
Track Severe Weather on mobile